sensor_id;sensor_type;location;lat;lon;timestamp;temperature;humidity
6496;DHT22;3281;47.658;9.166;2023-08-06T00:01:56;15.70;1.00
6496;DHT22;3281;47.658;9.166;2023-08-06T00:04:23;15.60;1.00
6496;DHT22;3281;47.658;9.166;2023-08-06T00:06:49;15.60;1.00
6496;DHT22;3281;47.658;9.166;2023-08-06T00:09:16;15.60;1.00
6496;DHT22;3281;47.658;9.166;2023-08-06T00:11:44;15.50;1.00
6496;DHT22;3281;47.658;9.166;2023-08-06T00:14:12;15.60;1.00
6496;DHT22;3281;47.658;9.166;2023-08-06T00:16:42;15.60;1.00
6496;DHT22;3281;47.658;9.166;2023-08-06T00:19:09;15.60;1.00
6496;DHT22;3281;47.658;9.166;2023-08-06T00:21:35;15.70;1.00
6496;DHT22;3281;47.658;9.166;2023-08-06T00:24:02;15.70;1.00
6496;DHT22;3281;47.658;9.166;2023-08-06T00:26:29;15.60;1.00
6496;DHT22;3281;47.658;9.166;2023-08-06T00:28:57;15.70;1.00
6496;DHT22;3281;47.658;9.166;2023-08-06T00:31:24;15.60;1.00
6496;DHT22;3281;47.658;9.166;2023-08-06T00:33:50;15.60;1.00
6496;DHT22;3281;47.658;9.166;2023-08-06T00:36:17;15.60;1.00
6496;DHT22;3281;47.658;9.166;2023-08-06T00:38:44;15.60;1.00
6496;DHT22;3281;47.658;9.166;2023-08-06T00:41:10;15.60;1.00
6496;DHT22;3281;47.658;9.166;2023-08-06T00:43:37;15.50;1.00
6496;DHT22;3281;47.658;9.166;2023-08-06T00:46:05;15.50;1.00
6496;DHT22;3281;47.658;9.166;2023-08-06T00:48:32;15.50;1.00
6496;DHT22;3281;47.658;9.166;2023-08-06T00:50:59;15.50;1.00
6496;DHT22;3281;47.658;9.166;2023-08-06T00:53:26;15.50;1.00
6496;DHT22;3281;47.658;9.166;2023-08-06T00:55:53;15.40;1.00
6496;DHT22;3281;47.658;9.166;2023-08-06T00:58:20;15.50;1.00
6496;DHT22;3281;47.658;9.166;2023-08-06T01:00:47;15.40;1.00
6496;DHT22;3281;47.658;9.166;2023-08-06T01:03:15;15.30;1.00
6496;DHT22;3281;47.658;9.166;2023-08-06T01:05:42;15.30;1.00
6496;DHT22;3281;47.658;9.166;2023-08-06T01:08:19;15.30;1.00
6496;DHT22;3281;47.658;9.166;2023-08-06T01:10:56;15.30;1.00
6496;DHT22;3281;47.658;9.166;2023-08-06T01:13:33;15.20;1.00
6496;DHT22;3281;47.658;9.166;2023-08-06T01:16:01;15.20;1.00
6496;DHT22;3281;47.658;9.166;2023-08-06T01:18:32;15.10;1.00
6496;DHT22;3281;47.658;9.166;2023-08-06T01:21:00;15.10;1.00
6496;DHT22;3281;47.658;9.166;2023-08-06T01:23:27;15.00;1.00
6496;DHT22;3281;47.658;9.166;2023-08-06T01:26:00;15.00;1.00
6496;DHT22;3281;47.658;9.166;2023-08-06T01:28:36;15.00;1.00
6496;DHT22;3281;47.658;9.166;2023-08-06T01:31:08;15.00;1.00
6496;DHT22;3281;47.658;9.166;2023-08-06T01:33:41;15.10;1.00
6496;DHT22;3281;47.658;9.166;2023-08-06T01:36:11;15.10;1.00
6496;DHT22;3281;47.658;9.166;2023-08-06T01:38:39;15.00;1.00
6496;DHT22;3281;47.658;9.166;2023-08-06T01:41:05;15.00;1.00
6496;DHT22;3281;47.658;9.166;2023-08-06T01:43:32;15.00;1.00
6496;DHT22;3281;47.658;9.166;2023-08-06T01:45:59;15.00;1.00
6496;DHT22;3281;47.658;9.166;2023-08-06T01:48:25;15.00;1.00
6496;DHT22;3281;47.658;9.166;2023-08-06T01:50:52;15.00;1.00
6496;DHT22;3281;47.658;9.166;2023-08-06T01:53:20;15.00;1.00
6496;DHT22;3281;47.658;9.166;2023-08-06T01:55:48;15.00;1.00
6496;DHT22;3281;47.658;9.166;2023-08-06T01:58:14;15.00;1.00
6496;DHT22;3281;47.658;9.166;2023-08-06T02:00:41;15.00;1.00
6496;DHT22;3281;47.658;9.166;2023-08-06T02:03:08;15.00;1.00
6496;DHT22;3281;47.658;9.166;2023-08-06T02:05:35;15.00;1.00
6496;DHT22;3281;47.658;9.166;2023-08-06T02:08:01;14.90;1.00
6496;DHT22;3281;47.658;9.166;2023-08-06T02:10:29;14.90;1.00
6496;DHT22;3281;47.658;9.166;2023-08-06T02:12:56;14.90;1.00
6496;DHT22;3281;47.658;9.166;2023-08-06T02:15:23;14.90;1.00
6496;DHT22;3281;47.658;9.166;2023-08-06T02:17:49;15.00;1.00
6496;DHT22;3281;47.658;9.166;2023-08-06T02:20:16;15.00;1.00
6496;DHT22;3281;47.658;9.166;2023-08-06T02:22:43;15.00;1.00
6496;DHT22;3281;47.658;9.166;2023-08-06T02:25:09;15.00;1.00
6496;DHT22;3281;47.658;9.166;2023-08-06T02:27:38;15.00;1.00
6496;DHT22;3281;47.658;9.166;2023-08-06T02:30:06;15.10;1.00
6496;DHT22;3281;47.658;9.166;2023-08-06T02:32:33;15.10;1.00
6496;DHT22;3281;47.658;9.166;2023-08-06T02:35:01;15.10;1.00
6496;DHT22;3281;47.658;9.166;2023-08-06T02:37:28;15.10;1.00
6496;DHT22;3281;47.658;9.166;2023-08-06T02:39:54;15.10;1.00
6496;DHT22;3281;47.658;9.166;2023-08-06T02:42:21;15.10;1.00
6496;DHT22;3281;47.658;9.166;2023-08-06T02:44:50;15.10;1.00
6496;DHT22;3281;47.658;9.166;2023-08-06T02:47:17;15.10;1.00
6496;DHT22;3281;47.658;9.166;2023-08-06T02:49:43;15.00;1.00
6496;DHT22;3281;47.658;9.166;2023-08-06T02:52:10;15.00;1.00
6496;DHT22;3281;47.658;9.166;2023-08-06T02:54:37;15.10;1.00
6496;DHT22;3281;47.658;9.166;2023-08-06T02:57:05;15.10;1.00
6496;DHT22;3281;47.658;9.166;2023-08-06T02:59:32;15.10;1.00
6496;DHT22;3281;47.658;9.166;2023-08-06T03:02:00;15.10;1.00
6496;DHT22;3281;47.658;9.166;2023-08-06T03:04:26;15.00;1.00
6496;DHT22;3281;47.658;9.166;2023-08-06T03:06:53;15.10;1.00
6496;DHT22;3281;47.658;9.166;2023-08-06T03:09:20;15.10;1.00
6496;DHT22;3281;47.658;9.166;2023-08-06T03:11:46;15.10;1.00
6496;DHT22;3281;47.658;9.166;2023-08-06T03:14:13;15.10;1.00
6496;DHT22;3281;47.658;9.166;2023-08-06T03:16:40;15.10;1.00
6496;DHT22;3281;47.658;9.166;2023-08-06T03:19:08;15.00;1.00
6496;DHT22;3281;47.658;9.166;2023-08-06T03:21:34;15.00;1.00
6496;DHT22;3281;47.658;9.166;2023-08-06T03:24:01;15.10;1.00
6496;DHT22;3281;47.658;9.166;2023-08-06T03:26:28;15.00;1.00
6496;DHT22;3281;47.658;9.166;2023-08-06T03:28:54;15.00;1.00
6496;DHT22;3281;47.658;9.166;2023-08-06T03:31:21;15.10;1.00
6496;DHT22;3281;47.658;9.166;2023-08-06T03:33:48;15.10;1.00
6496;DHT22;3281;47.658;9.166;2023-08-06T03:36:16;15.00;1.00
6496;DHT22;3281;47.658;9.166;2023-08-06T03:38:42;15.10;1.00
6496;DHT22;3281;47.658;9.166;2023-08-06T03:41:09;15.10;1.00
6496;DHT22;3281;47.658;9.166;2023-08-06T03:43:36;15.00;1.00
6496;DHT22;3281;47.658;9.166;2023-08-06T03:46:02;15.00;1.00
6496;DHT22;3281;47.658;9.166;2023-08-06T03:48:29;15.00;1.00
6496;DHT22;3281;47.658;9.166;2023-08-06T03:50:56;15.10;1.00
6496;DHT22;3281;47.658;9.166;2023-08-06T03:53:24;15.10;1.00
6496;DHT22;3281;47.658;9.166;2023-08-06T03:55:50;15.00;1.00
6496;DHT22;3281;47.658;9.166;2023-08-06T03:58:17;15.10;1.00
6496;DHT22;3281;47.658;9.166;2023-08-06T04:00:44;15.10;1.00
6496;DHT22;3281;47.658;9.166;2023-08-06T04:03:11;15.10;1.00
6496;DHT22;3281;47.658;9.166;2023-08-06T04:05:38;15.10;1.00
6496;DHT22;3281;47.658;9.166;2023-08-06T04:08:04;15.10;1.00
6496;DHT22;3281;47.658;9.166;2023-08-06T04:10:32;15.10;1.00
6496;DHT22;3281;47.658;9.166;2023-08-06T04:12:59;15.20;1.00
6496;DHT22;3281;47.658;9.166;2023-08-06T04:15:26;15.20;1.00
6496;DHT22;3281;47.658;9.166;2023-08-06T04:17:52;15.20;1.00
6496;DHT22;3281;47.658;9.166;2023-08-06T04:20:21;15.30;1.00
6496;DHT22;3281;47.658;9.166;2023-08-06T04:22:47;15.20;1.00
6496;DHT22;3281;47.658;9.166;2023-08-06T04:25:14;15.30;1.00
6496;DHT22;3281;47.658;9.166;2023-08-06T04:27:47;15.40;1.00
6496;DHT22;3281;47.658;9.166;2023-08-06T04:30:14;15.40;1.00
6496;DHT22;3281;47.658;9.166;2023-08-06T04:32:41;15.40;1.00
6496;DHT22;3281;47.658;9.166;2023-08-06T04:35:08;15.40;1.00
6496;DHT22;3281;47.658;9.166;2023-08-06T04:37:34;15.50;1.00
6496;DHT22;3281;47.658;9.166;2023-08-06T04:40:01;15.50;1.00
6496;DHT22;3281;47.658;9.166;2023-08-06T04:42:28;15.50;1.00
6496;DHT22;3281;47.658;9.166;2023-08-06T04:44:56;15.50;1.00
6496;DHT22;3281;47.658;9.166;2023-08-06T04:47:23;15.60;1.00
6496;DHT22;3281;47.658;9.166;2023-08-06T04:49:51;15.60;1.00
6496;DHT22;3281;47.658;9.166;2023-08-06T04:52:18;15.60;1.00
6496;DHT22;3281;47.658;9.166;2023-08-06T04:54:44;15.40;1.00
6496;DHT22;3281;47.658;9.166;2023-08-06T04:57:11;15.30;1.00
6496;DHT22;3281;47.658;9.166;2023-08-06T04:59:39;15.10;1.00
6496;DHT22;3281;47.658;9.166;2023-08-06T05:02:07;15.10;1.00
6496;DHT22;3281;47.658;9.166;2023-08-06T05:04:33;15.00;1.00
6496;DHT22;3281;47.658;9.166;2023-08-06T05:07:00;15.00;1.00
6496;DHT22;3281;47.658;9.166;2023-08-06T05:09:27;14.90;1.00
6496;DHT22;3281;47.658;9.166;2023-08-06T05:11:53;14.90;1.00
6496;DHT22;3281;47.658;9.166;2023-08-06T05:14:20;14.80;1.00
6496;DHT22;3281;47.658;9.166;2023-08-06T05:16:47;14.70;1.00
6496;DHT22;3281;47.658;9.166;2023-08-06T05:19:15;14.70;1.00
6496;DHT22;3281;47.658;9.166;2023-08-06T05:21:41;14.70;1.00
6496;DHT22;3281;47.658;9.166;2023-08-06T05:24:08;14.70;1.00
6496;DHT22;3281;47.658;9.166;2023-08-06T05:26:35;14.70;1.00
6496;DHT22;3281;47.658;9.166;2023-08-06T05:29:01;14.60;1.00
6496;DHT22;3281;47.658;9.166;2023-08-06T05:31:28;14.60;1.00
6496;DHT22;3281;47.658;9.166;2023-08-06T05:33:55;14.50;1.00
6496;DHT22;3281;47.658;9.166;2023-08-06T05:36:23;14.40;1.00
6496;DHT22;3281;47.658;9.166;2023-08-06T05:38:49;14.30;1.00
6496;DHT22;3281;47.658;9.166;2023-08-06T05:41:16;14.30;1.00
6496;DHT22;3281;47.658;9.166;2023-08-06T05:43:43;14.30;1.00
6496;DHT22;3281;47.658;9.166;2023-08-06T05:46:09;14.30;1.00
6496;DHT22;3281;47.658;9.166;2023-08-06T05:48:36;14.20;1.00
6496;DHT22;3281;47.658;9.166;2023-08-06T05:51:03;14.30;1.00
6496;DHT22;3281;47.658;9.166;2023-08-06T05:53:31;14.20;1.00
6496;DHT22;3281;47.658;9.166;2023-08-06T05:55:58;14.20;1.00
6496;DHT22;3281;47.658;9.166;2023-08-06T05:58:24;14.30;1.00
6496;DHT22;3281;47.658;9.166;2023-08-06T06:00:54;14.30;1.00
6496;DHT22;3281;47.658;9.166;2023-08-06T06:03:20;14.40;1.00
6496;DHT22;3281;47.658;9.166;2023-08-06T06:05:47;14.40;1.00
6496;DHT22;3281;47.658;9.166;2023-08-06T06:08:14;14.50;1.00
6496;DHT22;3281;47.658;9.166;2023-08-06T06:10:41;14.50;1.00
6496;DHT22;3281;47.658;9.166;2023-08-06T06:13:08;14.50;1.00
6496;DHT22;3281;47.658;9.166;2023-08-06T06:15:36;14.60;1.00
6496;DHT22;3281;47.658;9.166;2023-08-06T06:18:03;14.60;1.00
6496;DHT22;3281;47.658;9.166;2023-08-06T06:20:31;14.60;1.00
6496;DHT22;3281;47.658;9.166;2023-08-06T06:22:58;14.70;1.00
6496;DHT22;3281;47.658;9.166;2023-08-06T06:25:25;14.90;1.00
6496;DHT22;3281;47.658;9.166;2023-08-06T06:27:53;14.90;1.00
6496;DHT22;3281;47.658;9.166;2023-08-06T06:30:20;15.00;1.00
6496;DHT22;3281;47.658;9.166;2023-08-06T06:32:47;15.00;1.00
6496;DHT22;3281;47.658;9.166;2023-08-06T06:35:14;15.10;1.00
6496;DHT22;3281;47.658;9.166;2023-08-06T06:37:40;15.00;1.00
6496;DHT22;3281;47.658;9.166;2023-08-06T06:40:07;15.00;1.00
6496;DHT22;3281;47.658;9.166;2023-08-06T06:42:34;15.10;1.00
6496;DHT22;3281;47.658;9.166;2023-08-06T06:45:02;15.10;1.00
6496;DHT22;3281;47.658;9.166;2023-08-06T06:47:29;15.20;1.00
6496;DHT22;3281;47.658;9.166;2023-08-06T06:49:56;15.30;1.00
6496;DHT22;3281;47.658;9.166;2023-08-06T06:52:22;15.40;1.00
6496;DHT22;3281;47.658;9.166;2023-08-06T06:54:49;15.60;1.00
6496;DHT22;3281;47.658;9.166;2023-08-06T06:57:16;15.70;1.00
6496;DHT22;3281;47.658;9.166;2023-08-06T06:59:43;15.70;1.00
6496;DHT22;3281;47.658;9.166;2023-08-06T07:02:11;15.60;1.00
6496;DHT22;3281;47.658;9.166;2023-08-06T07:04:37;15.60;1.00
6496;DHT22;3281;47.658;9.166;2023-08-06T07:07:04;15.60;1.00
6496;DHT22;3281;47.658;9.166;2023-08-06T07:09:31;15.60;1.00
6496;DHT22;3281;47.658;9.166;2023-08-06T07:11:57;15.50;1.00
6496;DHT22;3281;47.658;9.166;2023-08-06T07:14:25;15.60;1.00
6496;DHT22;3281;47.658;9.166;2023-08-06T07:16:51;15.50;1.00
6496;DHT22;3281;47.658;9.166;2023-08-06T07:19:20;15.50;1.00
6496;DHT22;3281;47.658;9.166;2023-08-06T07:21:46;15.30;1.00
6496;DHT22;3281;47.658;9.166;2023-08-06T07:24:13;15.30;1.00
6496;DHT22;3281;47.658;9.166;2023-08-06T07:26:40;15.30;1.00
6496;DHT22;3281;47.658;9.166;2023-08-06T07:29:06;15.40;1.00
6496;DHT22;3281;47.658;9.166;2023-08-06T07:31:33;15.40;1.00
6496;DHT22;3281;47.658;9.166;2023-08-06T07:34:00;15.40;1.00
6496;DHT22;3281;47.658;9.166;2023-08-06T07:36:28;15.40;1.00
6496;DHT22;3281;47.658;9.166;2023-08-06T07:38:55;15.30;1.00
6496;DHT22;3281;47.658;9.166;2023-08-06T07:41:22;15.30;1.00
6496;DHT22;3281;47.658;9.166;2023-08-06T07:43:49;15.40;1.00
6496;DHT22;3281;47.658;9.166;2023-08-06T07:46:16;15.40;1.00
6496;DHT22;3281;47.658;9.166;2023-08-06T07:48:42;15.30;1.00
6496;DHT22;3281;47.658;9.166;2023-08-06T07:51:09;15.30;1.00
6496;DHT22;3281;47.658;9.166;2023-08-06T07:53:37;15.30;1.00
6496;DHT22;3281;47.658;9.166;2023-08-06T07:56:04;15.30;1.00
6496;DHT22;3281;47.658;9.166;2023-08-06T07:58:30;15.30;1.00
6496;DHT22;3281;47.658;9.166;2023-08-06T08:00:57;15.30;1.00
6496;DHT22;3281;47.658;9.166;2023-08-06T08:03:24;15.40;1.00
6496;DHT22;3281;47.658;9.166;2023-08-06T08:05:54;15.40;1.00
6496;DHT22;3281;47.658;9.166;2023-08-06T08:08:22;15.50;1.00
6496;DHT22;3281;47.658;9.166;2023-08-06T08:10:50;15.30;1.00
6496;DHT22;3281;47.658;9.166;2023-08-06T08:13:17;15.20;1.00
6496;DHT22;3281;47.658;9.166;2023-08-06T08:15:44;15.10;1.00
6496;DHT22;3281;47.658;9.166;2023-08-06T08:18:11;15.20;1.00
6496;DHT22;3281;47.658;9.166;2023-08-06T08:20:37;15.10;1.00
6496;DHT22;3281;47.658;9.166;2023-08-06T08:23:04;15.20;1.00
6496;DHT22;3281;47.658;9.166;2023-08-06T08:25:30;15.20;1.00
6496;DHT22;3281;47.658;9.166;2023-08-06T08:28:00;15.20;1.00
6496;DHT22;3281;47.658;9.166;2023-08-06T08:30:27;15.00;1.00
6496;DHT22;3281;47.658;9.166;2023-08-06T08:32:54;14.90;1.00
6496;DHT22;3281;47.658;9.166;2023-08-06T08:35:20;14.90;1.00
6496;DHT22;3281;47.658;9.166;2023-08-06T08:37:47;14.80;1.00
6496;DHT22;3281;47.658;9.166;2023-08-06T08:40:14;14.70;1.00
6496;DHT22;3281;47.658;9.166;2023-08-06T08:42:42;14.60;1.00
6496;DHT22;3281;47.658;9.166;2023-08-06T08:45:12;14.60;1.00
6496;DHT22;3281;47.658;9.166;2023-08-06T08:47:40;14.60;1.00
6496;DHT22;3281;47.658;9.166;2023-08-06T08:50:08;14.60;1.00
6496;DHT22;3281;47.658;9.166;2023-08-06T08:52:35;14.60;1.00
6496;DHT22;3281;47.658;9.166;2023-08-06T08:55:02;14.60;1.00
6496;DHT22;3281;47.658;9.166;2023-08-06T08:57:29;14.70;1.00
6496;DHT22;3281;47.658;9.166;2023-08-06T08:59:56;14.70;1.00
6496;DHT22;3281;47.658;9.166;2023-08-06T09:02:25;14.70;1.00
6496;DHT22;3281;47.658;9.166;2023-08-06T09:04:56;14.80;1.00
6496;DHT22;3281;47.658;9.166;2023-08-06T09:07:25;14.80;1.00
6496;DHT22;3281;47.658;9.166;2023-08-06T09:09:53;14.80;1.00
6496;DHT22;3281;47.658;9.166;2023-08-06T09:12:22;14.70;1.00
6496;DHT22;3281;47.658;9.166;2023-08-06T09:14:48;14.80;1.00
6496;DHT22;3281;47.658;9.166;2023-08-06T09:17:16;14.90;1.00
6496;DHT22;3281;47.658;9.166;2023-08-06T09:19:46;14.80;1.00
6496;DHT22;3281;47.658;9.166;2023-08-06T09:22:15;14.80;1.00
6496;DHT22;3281;47.658;9.166;2023-08-06T09:24:42;14.90;1.00
6496;DHT22;3281;47.658;9.166;2023-08-06T09:27:13;15.00;1.00
6496;DHT22;3281;47.658;9.166;2023-08-06T09:29:41;15.00;1.00
6496;DHT22;3281;47.658;9.166;2023-08-06T09:32:09;15.00;1.00
6496;DHT22;3281;47.658;9.166;2023-08-06T09:34:38;15.10;1.00
6496;DHT22;3281;47.658;9.166;2023-08-06T09:37:08;15.00;1.00
6496;DHT22;3281;47.658;9.166;2023-08-06T09:39:36;15.10;1.00
6496;DHT22;3281;47.658;9.166;2023-08-06T09:42:03;15.10;1.00
6496;DHT22;3281;47.658;9.166;2023-08-06T09:44:31;15.10;1.00
6496;DHT22;3281;47.658;9.166;2023-08-06T09:46:59;15.10;1.00
6496;DHT22;3281;47.658;9.166;2023-08-06T09:49:27;15.00;1.00
6496;DHT22;3281;47.658;9.166;2023-08-06T09:51:54;14.90;1.00
6496;DHT22;3281;47.658;9.166;2023-08-06T09:54:25;14.90;1.00
6496;DHT22;3281;47.658;9.166;2023-08-06T09:56:52;14.90;1.00
6496;DHT22;3281;47.658;9.166;2023-08-06T09:59:19;15.00;1.00
6496;DHT22;3281;47.658;9.166;2023-08-06T10:01:46;15.40;1.00
6496;DHT22;3281;47.658;9.166;2023-08-06T10:04:15;15.50;1.00
6496;DHT22;3281;47.658;9.166;2023-08-06T10:06:43;16.10;1.00
6496;DHT22;3281;47.658;9.166;2023-08-06T10:09:12;16.20;1.00
6496;DHT22;3281;47.658;9.166;2023-08-06T10:11:42;16.40;1.00
6496;DHT22;3281;47.658;9.166;2023-08-06T10:14:12;16.30;1.00
6496;DHT22;3281;47.658;9.166;2023-08-06T10:16:42;16.50;1.00
6496;DHT22;3281;47.658;9.166;2023-08-06T10:19:10;16.70;1.00
6496;DHT22;3281;47.658;9.166;2023-08-06T10:21:38;16.80;1.00
6496;DHT22;3281;47.658;9.166;2023-08-06T10:24:07;16.90;1.00
6496;DHT22;3281;47.658;9.166;2023-08-06T10:26:36;16.60;1.00
6496;DHT22;3281;47.658;9.166;2023-08-06T10:29:36;16.30;1.00
6496;DHT22;3281;47.658;9.166;2023-08-06T10:32:04;15.90;1.00
6496;DHT22;3281;47.658;9.166;2023-08-06T10:34:55;15.70;1.00
6496;DHT22;3281;47.658;9.166;2023-08-06T10:37:23;15.60;1.00
6496;DHT22;3281;47.658;9.166;2023-08-06T10:39:50;15.30;1.00
6496;DHT22;3281;47.658;9.166;2023-08-06T10:42:21;15.30;1.00
6496;DHT22;3281;47.658;9.166;2023-08-06T10:47:55;15.30;1.00
6496;DHT22;3281;47.658;9.166;2023-08-06T10:50:23;15.30;1.00
6496;DHT22;3281;47.658;9.166;2023-08-06T10:52:50;15.40;1.00
6496;DHT22;3281;47.658;9.166;2023-08-06T10:55:24;15.40;1.00
6496;DHT22;3281;47.658;9.166;2023-08-06T10:57:51;15.50;1.00
6496;DHT22;3281;47.658;9.166;2023-08-06T11:00:18;15.70;1.00
6496;DHT22;3281;47.658;9.166;2023-08-06T11:02:47;15.80;1.00
6496;DHT22;3281;47.658;9.166;2023-08-06T11:05:15;15.90;1.00
6496;DHT22;3281;47.658;9.166;2023-08-06T11:07:42;16.10;1.00
6496;DHT22;3281;47.658;9.166;2023-08-06T11:10:10;16.20;1.00
6496;DHT22;3281;47.658;9.166;2023-08-06T11:12:37;16.30;1.00
6496;DHT22;3281;47.658;9.166;2023-08-06T11:15:05;16.30;1.00
6496;DHT22;3281;47.658;9.166;2023-08-06T11:17:33;16.50;1.00
6496;DHT22;3281;47.658;9.166;2023-08-06T11:20:01;16.50;1.00
6496;DHT22;3281;47.658;9.166;2023-08-06T11:22:30;16.60;1.00
6496;DHT22;3281;47.658;9.166;2023-08-06T11:24:56;16.50;1.00
6496;DHT22;3281;47.658;9.166;2023-08-06T11:27:26;16.40;1.00
6496;DHT22;3281;47.658;9.166;2023-08-06T11:29:53;16.20;1.00
6496;DHT22;3281;47.658;9.166;2023-08-06T11:32:20;16.30;1.00
6496;DHT22;3281;47.658;9.166;2023-08-06T11:34:46;16.10;1.00
6496;DHT22;3281;47.658;9.166;2023-08-06T11:37:13;16.10;1.00
6496;DHT22;3281;47.658;9.166;2023-08-06T11:39:47;16.30;1.00
6496;DHT22;3281;47.658;9.166;2023-08-06T11:42:14;16.40;1.00
6496;DHT22;3281;47.658;9.166;2023-08-06T11:44:41;16.50;1.00
6496;DHT22;3281;47.658;9.166;2023-08-06T11:47:13;16.30;1.00
6496;DHT22;3281;47.658;9.166;2023-08-06T11:49:41;16.40;1.00
6496;DHT22;3281;47.658;9.166;2023-08-06T11:52:17;16.50;1.00
6496;DHT22;3281;47.658;9.166;2023-08-06T11:54:47;16.40;1.00
6496;DHT22;3281;47.658;9.166;2023-08-06T11:57:15;16.40;1.00
6496;DHT22;3281;47.658;9.166;2023-08-06T11:59:42;16.30;1.00
6496;DHT22;3281;47.658;9.166;2023-08-06T12:02:09;16.20;1.00
6496;DHT22;3281;47.658;9.166;2023-08-06T12:05:01;16.20;1.00
6496;DHT22;3281;47.658;9.166;2023-08-06T12:07:30;16.00;1.00
6496;DHT22;3281;47.658;9.166;2023-08-06T12:09:59;16.10;1.00
6496;DHT22;3281;47.658;9.166;2023-08-06T12:12:25;16.10;1.00
6496;DHT22;3281;47.658;9.166;2023-08-06T12:14:52;16.10;1.00
6496;DHT22;3281;47.658;9.166;2023-08-06T12:17:19;16.10;1.00
6496;DHT22;3281;47.658;9.166;2023-08-06T12:19:46;16.10;1.00
6496;DHT22;3281;47.658;9.166;2023-08-06T12:22:13;16.20;1.00
6496;DHT22;3281;47.658;9.166;2023-08-06T12:24:41;16.30;1.00
6496;DHT22;3281;47.658;9.166;2023-08-06T12:27:09;16.40;1.00
6496;DHT22;3281;47.658;9.166;2023-08-06T12:29:36;16.40;1.00
6496;DHT22;3281;47.658;9.166;2023-08-06T12:32:03;16.30;1.00
6496;DHT22;3281;47.658;9.166;2023-08-06T12:34:30;16.30;1.00
6496;DHT22;3281;47.658;9.166;2023-08-06T12:36:57;16.10;1.00
6496;DHT22;3281;47.658;9.166;2023-08-06T12:39:23;16.20;1.00
6496;DHT22;3281;47.658;9.166;2023-08-06T12:41:50;16.10;1.00
6496;DHT22;3281;47.658;9.166;2023-08-06T12:44:18;16.10;1.00
6496;DHT22;3281;47.658;9.166;2023-08-06T12:46:45;16.20;1.00
6496;DHT22;3281;47.658;9.166;2023-08-06T12:49:12;16.20;1.00
6496;DHT22;3281;47.658;9.166;2023-08-06T12:51:38;16.40;1.00
6496;DHT22;3281;47.658;9.166;2023-08-06T12:54:05;16.50;1.00
6496;DHT22;3281;47.658;9.166;2023-08-06T12:56:32;16.50;1.00
6496;DHT22;3281;47.658;9.166;2023-08-06T12:58:58;16.60;1.00
6496;DHT22;3281;47.658;9.166;2023-08-06T13:01:26;16.70;1.00
6496;DHT22;3281;47.658;9.166;2023-08-06T13:03:53;16.80;1.00
6496;DHT22;3281;47.658;9.166;2023-08-06T13:06:19;16.80;1.00
6496;DHT22;3281;47.658;9.166;2023-08-06T13:08:46;16.90;1.00
6496;DHT22;3281;47.658;9.166;2023-08-06T13:11:13;16.80;1.00
6496;DHT22;3281;47.658;9.166;2023-08-06T13:13:40;16.80;1.00
6496;DHT22;3281;47.658;9.166;2023-08-06T13:16:06;16.90;1.00
6496;DHT22;3281;47.658;9.166;2023-08-06T13:18:34;17.00;1.00
6496;DHT22;3281;47.658;9.166;2023-08-06T13:21:01;17.00;1.00
6496;DHT22;3281;47.658;9.166;2023-08-06T13:23:28;17.00;1.00
6496;DHT22;3281;47.658;9.166;2023-08-06T13:25:54;17.00;1.00
6496;DHT22;3281;47.658;9.166;2023-08-06T13:28:21;16.90;1.00
6496;DHT22;3281;47.658;9.166;2023-08-06T13:30:48;17.00;1.00
6496;DHT22;3281;47.658;9.166;2023-08-06T13:33:15;17.10;1.00
6496;DHT22;3281;47.658;9.166;2023-08-06T13:35:43;17.00;1.00
6496;DHT22;3281;47.658;9.166;2023-08-06T13:38:10;17.00;1.00
6496;DHT22;3281;47.658;9.166;2023-08-06T13:40:36;17.10;1.00
6496;DHT22;3281;47.658;9.166;2023-08-06T13:43:03;17.20;1.00
6496;DHT22;3281;47.658;9.166;2023-08-06T13:45:30;17.20;1.00
6496;DHT22;3281;47.658;9.166;2023-08-06T13:47:59;17.30;1.00
6496;DHT22;3281;47.658;9.166;2023-08-06T13:50:26;17.30;1.00
6496;DHT22;3281;47.658;9.166;2023-08-06T13:52:55;17.20;1.00
6496;DHT22;3281;47.658;9.166;2023-08-06T13:55:22;17.30;1.00
6496;DHT22;3281;47.658;9.166;2023-08-06T13:57:48;17.30;1.00
6496;DHT22;3281;47.658;9.166;2023-08-06T14:00:16;17.50;1.00
6496;DHT22;3281;47.658;9.166;2023-08-06T14:02:43;17.60;1.00
6496;DHT22;3281;47.658;9.166;2023-08-06T14:05:10;17.50;1.00
6496;DHT22;3281;47.658;9.166;2023-08-06T14:07:37;17.60;1.00
6496;DHT22;3281;47.658;9.166;2023-08-06T14:10:06;18.00;1.00
6496;DHT22;3281;47.658;9.166;2023-08-06T14:12:34;18.20;1.00
6496;DHT22;3281;47.658;9.166;2023-08-06T14:15:01;18.30;1.00
6496;DHT22;3281;47.658;9.166;2023-08-06T14:17:28;17.80;1.00
6496;DHT22;3281;47.658;9.166;2023-08-06T14:19:55;17.90;1.00
6496;DHT22;3281;47.658;9.166;2023-08-06T14:22:22;18.00;1.00
6496;DHT22;3281;47.658;9.166;2023-08-06T14:24:48;17.90;1.00
6496;DHT22;3281;47.658;9.166;2023-08-06T14:27:16;17.70;1.00
6496;DHT22;3281;47.658;9.166;2023-08-06T14:29:43;17.70;1.00
6496;DHT22;3281;47.658;9.166;2023-08-06T14:32:10;17.80;1.00
6496;DHT22;3281;47.658;9.166;2023-08-06T14:34:36;18.00;1.00
6496;DHT22;3281;47.658;9.166;2023-08-06T14:37:03;17.80;1.00
6496;DHT22;3281;47.658;9.166;2023-08-06T14:39:30;17.90;1.00
6496;DHT22;3281;47.658;9.166;2023-08-06T14:41:57;18.00;1.00
6496;DHT22;3281;47.658;9.166;2023-08-06T14:44:25;18.00;1.00
6496;DHT22;3281;47.658;9.166;2023-08-06T14:46:52;18.10;1.00
6496;DHT22;3281;47.658;9.166;2023-08-06T14:49:18;17.90;1.00
6496;DHT22;3281;47.658;9.166;2023-08-06T14:51:45;17.90;1.00
6496;DHT22;3281;47.658;9.166;2023-08-06T14:54:12;18.10;1.00
6496;DHT22;3281;47.658;9.166;2023-08-06T14:56:38;18.00;1.00
6496;DHT22;3281;47.658;9.166;2023-08-06T14:59:05;17.90;1.00
6496;DHT22;3281;47.658;9.166;2023-08-06T15:01:33;17.90;1.00
6496;DHT22;3281;47.658;9.166;2023-08-06T15:04:00;17.90;1.00
6496;DHT22;3281;47.658;9.166;2023-08-06T15:06:26;17.90;1.00
6496;DHT22;3281;47.658;9.166;2023-08-06T15:08:53;18.00;1.00
6496;DHT22;3281;47.658;9.166;2023-08-06T15:11:23;18.00;1.00
6496;DHT22;3281;47.658;9.166;2023-08-06T15:13:51;18.00;1.00
6496;DHT22;3281;47.658;9.166;2023-08-06T15:16:17;18.00;1.00
6496;DHT22;3281;47.658;9.166;2023-08-06T15:18:46;18.00;1.00
6496;DHT22;3281;47.658;9.166;2023-08-06T15:21:14;17.90;1.00
6496;DHT22;3281;47.658;9.166;2023-08-06T15:23:41;17.90;1.00
6496;DHT22;3281;47.658;9.166;2023-08-06T15:26:07;17.90;1.00
6496;DHT22;3281;47.658;9.166;2023-08-06T15:28:34;17.80;1.00
6496;DHT22;3281;47.658;9.166;2023-08-06T15:31:01;17.90;1.00
6496;DHT22;3281;47.658;9.166;2023-08-06T15:33:29;17.90;1.00
6496;DHT22;3281;47.658;9.166;2023-08-06T15:35:57;17.90;1.00
6496;DHT22;3281;47.658;9.166;2023-08-06T15:38:24;17.90;1.00
6496;DHT22;3281;47.658;9.166;2023-08-06T15:40:51;17.90;1.00
6496;DHT22;3281;47.658;9.166;2023-08-06T15:43:17;17.90;1.00
6496;DHT22;3281;47.658;9.166;2023-08-06T15:45:44;18.00;1.00
6496;DHT22;3281;47.658;9.166;2023-08-06T15:48:11;18.10;1.00
6496;DHT22;3281;47.658;9.166;2023-08-06T15:50:38;18.10;1.00
6496;DHT22;3281;47.658;9.166;2023-08-06T15:53:06;17.90;1.00
6496;DHT22;3281;47.658;9.166;2023-08-06T15:55:33;18.00;1.00
6496;DHT22;3281;47.658;9.166;2023-08-06T15:58:02;17.90;1.00
6496;DHT22;3281;47.658;9.166;2023-08-06T16:00:30;17.70;1.00
6496;DHT22;3281;47.658;9.166;2023-08-06T16:02:57;17.50;1.00
6496;DHT22;3281;47.658;9.166;2023-08-06T16:05:24;17.40;1.00
6496;DHT22;3281;47.658;9.166;2023-08-06T16:07:51;17.30;1.00
6496;DHT22;3281;47.658;9.166;2023-08-06T16:10:19;17.20;1.00
6496;DHT22;3281;47.658;9.166;2023-08-06T16:12:45;17.20;1.00
6496;DHT22;3281;47.658;9.166;2023-08-06T16:15:12;17.10;1.00
6496;DHT22;3281;47.658;9.166;2023-08-06T16:17:44;16.90;1.00
6496;DHT22;3281;47.658;9.166;2023-08-06T16:20:12;16.20;1.00
6496;DHT22;3281;47.658;9.166;2023-08-06T16:22:39;15.90;1.00